createdAt,value
2022-08-20T00:00:06.325Z,1009.29
2022-08-20T00:01:06.367Z,1009.28
2022-08-20T00:02:06.336Z,1009.29
2022-08-20T00:03:06.248Z,1009.32
2022-08-20T00:04:06.222Z,1009.34
2022-08-20T00:05:06.212Z,1009.37
2022-08-20T00:06:06.218Z,1009.40
2022-08-20T00:07:06.155Z,1009.35
2022-08-20T00:08:06.116Z,1009.42
2022-08-20T00:09:06.082Z,1009.42
2022-08-20T00:10:06.070Z,1009.40
2022-08-20T00:11:06.319Z,1009.43
2022-08-20T00:12:06.006Z,1009.43
2022-08-20T00:13:05.990Z,1009.45
2022-08-20T00:14:05.951Z,1009.40
2022-08-20T00:15:05.932Z,1009.47
2022-08-20T00:16:05.897Z,1009.44
2022-08-20T00:17:05.934Z,1009.44
2022-08-20T00:18:05.871Z,1009.42
2022-08-20T00:19:05.816Z,1009.46
2022-08-20T00:20:05.857Z,1009.49
2022-08-20T00:21:05.768Z,1009.48
2022-08-20T00:22:05.801Z,1009.51
2022-08-20T00:23:10.202Z,1009.53
2022-08-20T00:24:05.674Z,1009.51
2022-08-20T00:25:06.459Z,1009.56
2022-08-20T00:26:05.633Z,1009.51
2022-08-20T00:27:05.679Z,1009.51
2022-08-20T00:28:05.585Z,1009.53
2022-08-20T00:29:05.554Z,1009.52
2022-08-20T00:30:05.538Z,1009.51
2022-08-20T00:31:05.503Z,1009.51
2022-08-20T00:32:05.585Z,1009.51
2022-08-20T00:33:05.447Z,1009.55
2022-08-20T00:34:05.411Z,1009.57
2022-08-20T00:35:05.388Z,1009.53
2022-08-20T00:36:05.356Z,1009.59
2022-08-20T00:37:05.318Z,1009.55
2022-08-20T00:38:05.464Z,1009.56
2022-08-20T00:39:05.304Z,1009.57
2022-08-20T00:40:05.322Z,1009.55
2022-08-20T00:41:05.264Z,1009.54
2022-08-20T00:42:05.189Z,1009.55
2022-08-20T00:43:05.235Z,1009.56
2022-08-20T00:44:05.134Z,1009.52
2022-08-20T00:45:05.119Z,1009.52
2022-08-20T00:46:05.098Z,1009.56
2022-08-20T00:47:05.066Z,1009.53
2022-08-20T00:48:05.114Z,1009.53
2022-08-20T00:49:05.012Z,1009.52
2022-08-20T00:50:04.971Z,1009.54
2022-08-20T00:51:04.956Z,1009.54
2022-08-20T00:52:04.913Z,1009.58
2022-08-20T00:53:04.983Z,1009.55
2022-08-20T00:54:04.940Z,1009.52
2022-08-20T00:55:04.867Z,1009.58
2022-08-20T00:56:04.818Z,1009.58
2022-08-20T00:57:04.830Z,1009.59
2022-08-20T00:58:05.097Z,1009.61
2022-08-20T00:59:04.810Z,1009.65
2022-08-20T01:00:05.477Z,1009.64
2022-08-20T01:01:04.707Z,1009.65
2022-08-20T01:02:04.739Z,1009.66
2022-08-20T01:03:04.660Z,1009.66
2022-08-20T01:04:04.688Z,1009.66
2022-08-20T01:05:04.599Z,1009.65
2022-08-20T01:06:04.556Z,1009.66
2022-08-20T01:07:04.524Z,1009.65
2022-08-20T01:08:04.506Z,1009.65
2022-08-20T01:09:04.684Z,1009.68
2022-08-20T01:10:04.492Z,1009.65
2022-08-20T01:11:04.412Z,1009.62
2022-08-20T01:12:04.400Z,1009.64
2022-08-20T01:13:04.372Z,1009.66
2022-08-20T01:14:04.599Z,1009.65
2022-08-20T01:15:04.319Z,1009.65
2022-08-20T01:16:04.274Z,1009.68
2022-08-20T01:17:04.253Z,1009.69
2022-08-20T01:18:04.237Z,1009.70
2022-08-20T01:19:04.192Z,1009.70
2022-08-20T01:20:04.233Z,1009.71
2022-08-20T01:21:04.164Z,1009.70
2022-08-20T01:22:04.138Z,1009.71
2022-08-20T01:23:04.094Z,1009.72
2022-08-20T01:24:04.060Z,1009.74
2022-08-20T01:25:04.133Z,1009.71
2022-08-20T01:26:04.009Z,1009.70
2022-08-20T01:27:03.990Z,1009.70
2022-08-20T01:28:03.953Z,1009.71
2022-08-20T01:29:04.032Z,1009.68
2022-08-20T01:30:06.822Z,1009.72
2022-08-20T01:31:03.964Z,1009.65
2022-08-20T01:32:03.863Z,1009.69
2022-08-20T01:33:03.833Z,1009.72
2022-08-20T01:34:03.807Z,1009.75
2022-08-20T01:35:03.786Z,1009.75
2022-08-20T01:36:04.078Z,1009.77
2022-08-20T01:37:03.710Z,1009.74
2022-08-20T01:38:03.689Z,1009.73
2022-08-20T01:39:03.654Z,1009.76
2022-08-20T01:40:03.679Z,1009.73
2022-08-20T01:41:03.694Z,1009.70
2022-08-20T01:42:03.577Z,1009.70
2022-08-20T01:43:03.569Z,1009.70
2022-08-20T01:44:03.527Z,1009.71
2022-08-20T01:45:03.500Z,1009.71
2022-08-20T01:46:04.107Z,1009.70
2022-08-20T01:47:03.463Z,1009.68
2022-08-20T01:48:03.418Z,1009.72
2022-08-20T01:49:03.467Z,1009.67
2022-08-20T01:50:03.372Z,1009.68
2022-08-20T01:51:03.354Z,1009.66
2022-08-20T01:52:03.369Z,1009.68
2022-08-20T01:53:03.293Z,1009.68
2022-08-20T01:54:03.274Z,1009.69
2022-08-20T01:55:03.246Z,1009.67
2022-08-20T01:56:03.231Z,1009.74
2022-08-20T01:57:03.696Z,1009.71
2022-08-20T01:58:03.137Z,1009.71
2022-08-20T01:59:03.115Z,1009.70
2022-08-20T02:00:03.100Z,1009.66
2022-08-20T02:01:03.067Z,1009.70
2022-08-20T02:02:03.282Z,1009.69
2022-08-20T02:03:03.062Z,1009.65
2022-08-20T02:04:02.996Z,1009.63
2022-08-20T02:05:02.992Z,1009.63
2022-08-20T02:06:02.956Z,1009.64
2022-08-20T02:07:02.905Z,1009.63
2022-08-20T02:08:02.920Z,1009.64
2022-08-20T02:09:02.862Z,1009.66
2022-08-20T02:10:02.846Z,1009.63
2022-08-20T02:11:02.837Z,1009.66
2022-08-20T02:12:02.781Z,1009.66
2022-08-20T02:13:02.835Z,1009.67
2022-08-20T02:14:02.715Z,1009.66
2022-08-20T02:15:02.696Z,1009.70
2022-08-20T02:16:02.661Z,1009.70
2022-08-20T02:17:02.640Z,1009.71
2022-08-20T02:18:02.665Z,1009.73
2022-08-20T02:19:02.601Z,1009.70
2022-08-20T02:20:02.543Z,1009.74
2022-08-20T02:21:02.571Z,1009.77
2022-08-20T02:22:02.509Z,1009.78
2022-08-20T02:23:02.477Z,1009.82
2022-08-20T02:24:02.518Z,1009.81
2022-08-20T02:25:02.414Z,1009.81
2022-08-20T02:26:02.399Z,1009.81
2022-08-20T02:27:02.369Z,1009.83
2022-08-20T02:28:02.417Z,1009.85
2022-08-20T02:29:02.375Z,1009.87
2022-08-20T02:30:02.281Z,1009.89
2022-08-20T02:31:02.270Z,1009.88
2022-08-20T02:32:28.351Z,1009.90
2022-08-20T02:33:02.194Z,1009.90
2022-08-20T02:34:21.575Z,1009.91
2022-08-20T02:35:02.247Z,1009.90
2022-08-20T02:36:02.136Z,1009.91
2022-08-20T02:37:02.089Z,1009.85
2022-08-20T02:38:02.086Z,1009.91
2022-08-20T02:39:02.069Z,1009.90
2022-08-20T02:40:02.140Z,1009.94
2022-08-20T02:41:02.048Z,1010.00
2022-08-20T02:42:01.986Z,1009.99
2022-08-20T02:43:02.019Z,1009.98
2022-08-20T02:44:01.909Z,1009.99
2022-08-20T02:45:01.976Z,1010.03
2022-08-20T02:46:01.926Z,1010.00
2022-08-20T02:47:01.823Z,1009.98
2022-08-20T02:48:01.806Z,1009.99
2022-08-20T02:49:01.767Z,1009.99
2022-08-20T02:50:01.757Z,1010.00
2022-08-20T02:51:01.877Z,1009.96
2022-08-20T02:52:01.692Z,1009.92
2022-08-20T02:53:01.781Z,1009.98
2022-08-20T02:54:01.653Z,1009.92
2022-08-20T02:55:01.625Z,1009.92
2022-08-20T02:56:01.682Z,1009.92
2022-08-20T02:57:01.581Z,1009.89
2022-08-20T02:58:01.540Z,1009.88
2022-08-20T02:59:01.508Z,1009.87
2022-08-20T03:00:01.491Z,1009.87
2022-08-20T03:01:01.491Z,1009.87
2022-08-20T03:02:01.554Z,1009.85
2022-08-20T03:03:01.395Z,1009.86
2022-08-20T03:04:01.382Z,1009.85
2022-08-20T03:05:01.356Z,1009.86
2022-08-20T03:06:01.339Z,1009.86
2022-08-20T03:07:01.307Z,1009.87
2022-08-20T03:08:01.306Z,1009.83
2022-08-20T03:09:01.238Z,1009.86
2022-08-20T03:10:01.245Z,1009.85
2022-08-20T03:11:01.186Z,1009.84
2022-08-20T03:12:01.179Z,1009.83
2022-08-20T03:13:01.228Z,1009.84
2022-08-20T03:14:02.007Z,1009.80
2022-08-20T03:15:01.125Z,1009.80
2022-08-20T03:16:01.040Z,1009.80
2022-08-20T03:17:01.019Z,1009.81
2022-08-20T03:18:01.147Z,1009.77
2022-08-20T03:19:00.979Z,1009.73
2022-08-20T03:20:00.960Z,1009.73
2022-08-20T03:21:00.930Z,1009.74
2022-08-20T03:22:00.894Z,1009.75
2022-08-20T03:23:00.873Z,1009.75
2022-08-20T03:24:00.899Z,1009.71
2022-08-20T03:25:00.821Z,1009.69
2022-08-20T03:26:00.777Z,1009.71
2022-08-20T03:27:00.775Z,1009.66
2022-08-20T03:28:00.986Z,1009.66
2022-08-20T03:29:00.785Z,1009.61
2022-08-20T03:30:00.687Z,1009.60
2022-08-20T03:31:00.639Z,1009.60
2022-08-20T03:32:03.032Z,1009.56
2022-08-20T03:33:00.604Z,1009.53
2022-08-20T03:34:00.669Z,1009.51
2022-08-20T03:35:00.605Z,1009.51
2022-08-20T03:36:00.527Z,1009.51
2022-08-20T03:37:00.535Z,1009.54
2022-08-20T03:38:01.146Z,1009.57
2022-08-20T03:39:00.497Z,1009.58
2022-08-20T03:40:00.601Z,1009.58
2022-08-20T03:41:00.404Z,1009.59
2022-08-20T03:42:00.369Z,1009.60
2022-08-20T03:43:00.328Z,1009.60
2022-08-20T03:44:00.299Z,1009.59
2022-08-20T03:45:00.341Z,1009.61
2022-08-20T03:46:00.337Z,1009.64
2022-08-20T03:47:00.233Z,1009.59
2022-08-20T03:48:00.199Z,1009.63
2022-08-20T03:49:00.912Z,1009.60
2022-08-20T03:50:00.151Z,1009.64
2022-08-20T03:51:00.209Z,1009.63
2022-08-20T03:52:00.118Z,1009.68
2022-08-20T03:53:00.082Z,1009.67
2022-08-20T03:54:00.025Z,1009.63
2022-08-20T03:55:00.106Z,1009.68
2022-08-20T03:56:02.381Z,1009.65
2022-08-20T03:56:59.956Z,1009.70
2022-08-20T03:58:00.022Z,1009.66
2022-08-20T03:58:59.914Z,1009.70
2022-08-20T04:00:01.032Z,1009.69
2022-08-20T04:00:59.931Z,1009.70
2022-08-20T04:01:59.862Z,1009.72
2022-08-20T04:03:00.524Z,1009.73
2022-08-20T04:03:59.774Z,1009.70
2022-08-20T04:04:59.753Z,1009.72
2022-08-20T04:05:59.776Z,1009.75
2022-08-20T04:06:59.783Z,1009.75
2022-08-20T04:08:02.861Z,1009.79
2022-08-20T04:08:59.659Z,1009.80
2022-08-20T04:09:59.607Z,1009.83
2022-08-20T04:10:59.586Z,1009.79
2022-08-20T04:11:59.581Z,1009.84
2022-08-20T04:12:59.608Z,1009.88
2022-08-20T04:13:59.508Z,1009.89
2022-08-20T04:14:59.472Z,1009.91
2022-08-20T04:15:59.466Z,1009.88
2022-08-20T04:16:59.411Z,1009.89
2022-08-20T04:17:59.489Z,1009.91
2022-08-20T04:19:02.488Z,1009.92
2022-08-20T04:19:59.348Z,1009.91
2022-08-20T04:20:59.327Z,1009.96
2022-08-20T04:21:59.345Z,1009.96
2022-08-20T04:22:59.815Z,1010.02
2022-08-20T04:24:00.045Z,1010.06
2022-08-20T04:24:59.220Z,1010.02
2022-08-20T04:25:59.177Z,1010.01
2022-08-20T04:26:59.146Z,1010.01
2022-08-20T04:27:59.231Z,1010.05
2022-08-20T04:28:59.119Z,1009.99
2022-08-20T04:29:59.120Z,1010.02
2022-08-20T04:30:59.085Z,1010.03
2022-08-20T04:31:59.016Z,1009.98
2022-08-20T04:32:59.027Z,1009.98
2022-08-20T04:33:59.078Z,1010.02
2022-08-20T04:34:58.933Z,1010.00
2022-08-20T04:35:58.928Z,1010.02
2022-08-20T04:36:58.906Z,1010.00
2022-08-20T04:37:58.923Z,1010.03
2022-08-20T04:38:58.888Z,1010.04
2022-08-20T04:39:58.865Z,1010.08
2022-08-20T04:40:58.770Z,1010.06
2022-08-20T04:41:58.756Z,1010.04
2022-08-20T04:42:58.748Z,1010.05
2022-08-20T04:43:58.791Z,1010.05
2022-08-20T04:44:58.744Z,1010.06
2022-08-20T04:45:58.636Z,1010.07
2022-08-20T04:46:58.655Z,1010.03
2022-08-20T04:47:59.555Z,1010.08
2022-08-20T04:48:58.566Z,1010.03
2022-08-20T04:49:58.614Z,1010.06
2022-08-20T04:50:58.510Z,1010.01
2022-08-20T04:51:58.481Z,1010.01
2022-08-20T04:52:58.444Z,1010.02
2022-08-20T04:53:58.503Z,1010.03
2022-08-20T04:54:58.391Z,1009.99
2022-08-20T04:55:58.530Z,1010.04
2022-08-20T04:56:58.339Z,1010.01
2022-08-20T04:57:58.332Z,1010.03
2022-08-20T04:58:58.279Z,1009.99
2022-08-20T04:59:59.572Z,1010.00
2022-08-20T05:01:01.024Z,1010.05
2022-08-20T05:01:58.284Z,1010.02
2022-08-20T05:02:58.170Z,1010.08
2022-08-20T05:03:58.146Z,1010.05
2022-08-20T05:04:58.121Z,1010.05
2022-08-20T05:05:58.094Z,1010.09
2022-08-20T05:06:58.063Z,1010.05
2022-08-20T05:07:58.377Z,1010.05
2022-08-20T05:08:58.091Z,1010.07
2022-08-20T05:09:57.989Z,1010.11
2022-08-20T05:11:15.542Z,1010.08
2022-08-20T05:11:57.931Z,1010.13
2022-08-20T05:12:57.900Z,1010.12
2022-08-20T05:13:57.956Z,1010.12
2022-08-20T05:14:57.845Z,1010.19
2022-08-20T05:15:57.819Z,1010.18
2022-08-20T05:16:57.797Z,1010.19
2022-08-20T05:17:57.947Z,1010.18
2022-08-20T05:18:57.739Z,1010.16
2022-08-20T05:19:57.885Z,1010.18
2022-08-20T05:20:57.689Z,1010.16
2022-08-20T05:21:57.653Z,1010.17
2022-08-20T05:22:57.637Z,1010.19
2022-08-20T05:23:57.608Z,1010.24
2022-08-20T05:24:57.592Z,1010.22
2022-08-20T05:25:57.624Z,1010.22
2022-08-20T05:26:57.528Z,1010.26
2022-08-20T05:27:57.572Z,1010.25
2022-08-20T05:28:58.973Z,1010.26
2022-08-20T05:29:57.445Z,1010.30
2022-08-20T05:30:57.420Z,1010.29
2022-08-20T05:31:57.443Z,1010.27
2022-08-20T05:32:57.369Z,1010.21
2022-08-20T05:33:57.334Z,1010.23
2022-08-20T05:34:57.308Z,1010.24
2022-08-20T05:35:57.296Z,1010.20
2022-08-20T05:36:57.305Z,1010.20
2022-08-20T05:37:57.470Z,1010.16
2022-08-20T05:38:57.201Z,1010.14
2022-08-20T05:39:57.225Z,1010.11
2022-08-20T05:40:57.148Z,1010.14
2022-08-20T05:41:57.209Z,1010.14
2022-08-20T05:42:57.089Z,1010.14
2022-08-20T05:43:57.137Z,1010.17
2022-08-20T05:44:57.091Z,1010.17
2022-08-20T05:45:57.007Z,1010.12
2022-08-20T05:46:56.987Z,1010.15
2022-08-20T05:47:57.023Z,1010.13
2022-08-20T05:48:59.475Z,1010.18
2022-08-20T05:49:56.908Z,1010.14
2022-08-20T05:50:56.877Z,1010.16
2022-08-20T05:51:56.854Z,1010.17
2022-08-20T05:52:56.844Z,1010.18
2022-08-20T05:53:57.441Z,1010.23
2022-08-20T05:54:56.774Z,1010.22
2022-08-20T05:55:56.749Z,1010.25
2022-08-20T05:56:56.725Z,1010.28
2022-08-20T05:57:56.757Z,1010.26
2022-08-20T05:58:56.685Z,1010.31
2022-08-20T05:59:56.732Z,1010.30
2022-08-20T06:00:56.783Z,1010.32
2022-08-20T06:01:56.583Z,1010.34
2022-08-20T06:02:56.561Z,1010.33
2022-08-20T06:03:56.535Z,1010.37
2022-08-20T06:04:56.507Z,1010.38
2022-08-20T06:05:56.532Z,1010.38
2022-08-20T06:06:56.453Z,1010.39
2022-08-20T06:08:07.548Z,1010.42
2022-08-20T06:08:56.400Z,1010.43
2022-08-20T06:09:56.373Z,1010.41
2022-08-20T06:10:56.409Z,1010.42
2022-08-20T06:11:59.210Z,1010.44
2022-08-20T06:12:56.329Z,1010.43
2022-08-20T06:13:56.269Z,1010.46
2022-08-20T06:14:56.249Z,1010.45
2022-08-20T06:15:56.491Z,1010.51
2022-08-20T06:16:57.945Z,1010.53
2022-08-20T06:17:58.395Z,1010.54
2022-08-20T06:18:58.132Z,1010.53
2022-08-20T06:19:56.107Z,1010.55
2022-08-20T06:20:56.094Z,1010.50
2022-08-20T06:21:56.180Z,1010.56
2022-08-20T06:22:56.032Z,1010.55
2022-08-20T06:23:58.133Z,1010.55
2022-08-20T06:24:56.005Z,1010.56
2022-08-20T06:25:55.947Z,1010.54
2022-08-20T06:26:55.921Z,1010.57
2022-08-20T06:27:56.139Z,1010.54
2022-08-20T06:28:55.877Z,1010.58
2022-08-20T06:29:55.881Z,1010.55
2022-08-20T06:30:55.824Z,1010.55
2022-08-20T06:31:55.803Z,1010.57
2022-08-20T06:32:55.767Z,1010.57
2022-08-20T06:33:55.844Z,1010.55
2022-08-20T06:34:55.718Z,1010.60
2022-08-20T06:35:55.710Z,1010.56
2022-08-20T06:36:55.671Z,1010.58
2022-08-20T06:37:55.741Z,1010.61
2022-08-20T06:38:55.615Z,1010.64
2022-08-20T06:39:55.701Z,1010.67
2022-08-20T06:40:55.556Z,1010.63
2022-08-20T06:41:55.538Z,1010.65
2022-08-20T06:42:55.499Z,1010.67
2022-08-20T06:43:55.487Z,1010.64
2022-08-20T06:44:55.467Z,1010.67
2022-08-20T06:45:55.522Z,1010.64
2022-08-20T06:46:55.408Z,1010.60
2022-08-20T06:47:55.642Z,1010.61
2022-08-20T06:48:55.344Z,1010.61
2022-08-20T06:49:55.324Z,1010.58
2022-08-20T06:50:55.295Z,1010.61
2022-08-20T06:51:55.372Z,1010.68
2022-08-20T06:52:55.237Z,1010.67
2022-08-20T06:53:56.079Z,1010.65
2022-08-20T06:54:55.188Z,1010.66
2022-08-20T06:55:55.158Z,1010.67
2022-08-20T06:56:55.167Z,1010.69
2022-08-20T06:57:55.269Z,1010.70
2022-08-20T06:58:55.733Z,1010.71
2022-08-20T06:59:55.067Z,1010.73
2022-08-20T07:00:55.103Z,1010.70
2022-08-20T07:01:55.006Z,1010.71
2022-08-20T07:02:57.205Z,1010.74
2022-08-20T07:03:56.220Z,1010.72
2022-08-20T07:04:54.929Z,1010.72
2022-08-20T07:05:54.897Z,1010.73
2022-08-20T07:06:55.626Z,1010.79
2022-08-20T07:07:54.844Z,1010.81
2022-08-20T07:08:54.823Z,1010.80
2022-08-20T07:09:54.839Z,1010.85
2022-08-20T07:10:54.766Z,1010.85
2022-08-20T07:11:54.742Z,1010.83
2022-08-20T07:12:54.717Z,1010.87
2022-08-20T07:13:54.688Z,1010.89
2022-08-20T07:14:54.740Z,1010.90
2022-08-20T07:15:54.644Z,1010.88
2022-08-20T07:16:54.617Z,1010.91
2022-08-20T07:17:58.745Z,1010.91
2022-08-20T07:18:54.567Z,1010.90
2022-08-20T07:19:54.706Z,1010.95
2022-08-20T07:20:54.511Z,1010.94
2022-08-20T07:21:54.516Z,1010.96
2022-08-20T07:22:54.482Z,1010.96
2022-08-20T07:23:54.437Z,1010.97
2022-08-20T07:24:54.418Z,1010.98
2022-08-20T07:25:54.517Z,1010.97
2022-08-20T07:26:56.829Z,1011.01
2022-08-20T07:27:55.201Z,1011.00
2022-08-20T07:28:54.311Z,1011.02
2022-08-20T07:29:54.277Z,1011.02
2022-08-20T07:30:56.840Z,1011.05
2022-08-20T07:31:54.291Z,1011.02
2022-08-20T07:32:54.203Z,1011.05
2022-08-20T07:33:54.179Z,1011.04
2022-08-20T07:34:54.153Z,1011.05
2022-08-20T07:35:54.127Z,1011.08
2022-08-20T07:36:54.191Z,1011.06
2022-08-20T07:37:54.086Z,1011.09
2022-08-20T07:38:54.056Z,1011.14
2022-08-20T07:39:54.072Z,1011.12
2022-08-20T07:40:54.000Z,1011.12
2022-08-20T07:41:56.737Z,1011.08
2022-08-20T07:42:54.027Z,1011.06
2022-08-20T07:43:53.919Z,1011.11
2022-08-20T07:44:53.905Z,1011.07
2022-08-20T07:45:53.874Z,1011.04
2022-08-20T07:46:53.845Z,1011.07
2022-08-20T07:47:53.815Z,1010.99
2022-08-20T07:48:54.281Z,1011.02
2022-08-20T07:49:53.762Z,1011.04
2022-08-20T07:50:53.738Z,1011.04
2022-08-20T07:51:53.730Z,1011.06
2022-08-20T07:52:54.749Z,1011.06
2022-08-20T07:53:53.727Z,1011.04
2022-08-20T07:54:53.644Z,1011.04
2022-08-20T07:55:59.115Z,1011.07
2022-08-20T07:56:53.591Z,1011.05
2022-08-20T07:57:53.562Z,1011.06
2022-08-20T07:58:53.767Z,1011.03
2022-08-20T07:59:53.517Z,1011.07
2022-08-20T08:00:53.539Z,1011.04
2022-08-20T08:01:53.467Z,1011.07
2022-08-20T08:02:53.441Z,1011.06
2022-08-20T08:03:53.419Z,1011.10
2022-08-20T08:04:53.445Z,1011.12
2022-08-20T08:05:53.374Z,1011.11
2022-08-20T08:06:53.336Z,1011.15
2022-08-20T08:07:53.350Z,1011.17
2022-08-20T08:08:53.289Z,1011.18
2022-08-20T08:09:53.328Z,1011.21
2022-08-20T08:10:53.245Z,1011.22
2022-08-20T08:11:53.215Z,1011.25
2022-08-20T08:12:53.186Z,1011.23
2022-08-20T08:13:53.159Z,1011.29
2022-08-20T08:14:53.209Z,1011.29
2022-08-20T08:15:53.115Z,1011.27
2022-08-20T08:16:53.087Z,1011.24
2022-08-20T08:17:53.064Z,1011.28
2022-08-20T08:18:53.043Z,1011.25
2022-08-20T08:19:53.073Z,1011.26
2022-08-20T08:20:52.989Z,1011.28
2022-08-20T08:21:53.040Z,1011.25
2022-08-20T08:22:52.979Z,1011.27
2022-08-20T08:23:52.917Z,1011.30
2022-08-20T08:24:57.464Z,1011.30
2022-08-20T08:25:52.880Z,1011.28
2022-08-20T08:26:52.842Z,1011.31
2022-08-20T08:27:52.816Z,1011.32
2022-08-20T08:28:52.794Z,1011.30
2022-08-20T08:29:52.790Z,1011.30
2022-08-20T08:30:52.797Z,1011.30
2022-08-20T08:31:52.793Z,1011.29
2022-08-20T08:32:52.724Z,1011.32
2022-08-20T08:33:52.669Z,1011.26
2022-08-20T08:34:52.646Z,1011.27
2022-08-20T08:35:52.727Z,1011.27
2022-08-20T08:36:52.604Z,1011.26
2022-08-20T08:37:52.575Z,1011.28
2022-08-20T08:38:52.541Z,1011.25
2022-08-20T08:39:52.560Z,1011.29
2022-08-20T08:40:52.501Z,1011.28
2022-08-20T08:41:52.601Z,1011.28
2022-08-20T08:42:52.460Z,1011.32
2022-08-20T08:43:52.432Z,1011.30
2022-08-20T08:44:52.411Z,1011.32
2022-08-20T08:45:52.379Z,1011.34
2022-08-20T08:46:52.427Z,1011.29
2022-08-20T08:47:52.337Z,1011.28
2022-08-20T08:48:52.303Z,1011.30
2022-08-20T08:49:52.291Z,1011.37
2022-08-20T08:50:53.272Z,1011.37
2022-08-20T08:51:52.277Z,1011.37
2022-08-20T08:52:52.311Z,1011.35
2022-08-20T08:53:52.187Z,1011.40
2022-08-20T08:54:52.162Z,1011.39
2022-08-20T08:55:52.187Z,1011.40
2022-08-20T08:56:52.114Z,1011.40
2022-08-20T08:57:52.152Z,1011.42
2022-08-20T08:58:52.067Z,1011.44
2022-08-20T08:59:58.388Z,1011.48
2022-08-20T09:00:56.403Z,1011.45
2022-08-20T09:01:53.807Z,1011.49
2022-08-20T09:02:52.137Z,1011.47
2022-08-20T09:03:51.952Z,1011.48
2022-08-20T09:04:51.926Z,1011.51
2022-08-20T09:05:51.896Z,1011.52
2022-08-20T09:06:52.452Z,1011.49
2022-08-20T09:07:51.854Z,1011.51
2022-08-20T09:08:51.884Z,1011.49
2022-08-20T09:09:51.804Z,1011.55
2022-08-20T09:10:51.878Z,1011.49
2022-08-20T09:11:51.759Z,1011.48
2022-08-20T09:12:52.064Z,1011.51
2022-08-20T09:13:51.768Z,1011.45
2022-08-20T09:14:51.686Z,1011.49
2022-08-20T09:15:51.662Z,1011.46
2022-08-20T09:16:52.494Z,1011.48
2022-08-20T09:17:51.641Z,1011.50
2022-08-20T09:18:51.744Z,1011.47
2022-08-20T09:19:51.555Z,1011.51
2022-08-20T09:20:51.574Z,1011.53
2022-08-20T09:21:51.555Z,1011.50
2022-08-20T09:22:53.639Z,1011.48
2022-08-20T09:23:51.463Z,1011.52
2022-08-20T09:24:51.504Z,1011.50
2022-08-20T09:25:51.433Z,1011.53
2022-08-20T09:26:54.140Z,1011.60
2022-08-20T09:27:51.395Z,1011.50
2022-08-20T09:28:51.741Z,1011.53
2022-08-20T09:29:51.375Z,1011.54
2022-08-20T09:30:51.307Z,1011.57
2022-08-20T09:31:51.295Z,1011.58
2022-08-20T09:32:51.272Z,1011.55
2022-08-20T09:33:51.240Z,1011.57
2022-08-20T09:34:51.284Z,1011.54
2022-08-20T09:35:51.197Z,1011.57
2022-08-20T09:36:51.198Z,1011.56
2022-08-20T09:37:51.176Z,1011.56
2022-08-20T09:38:51.103Z,1011.58
2022-08-20T09:39:51.169Z,1011.60
2022-08-20T09:40:51.146Z,1011.57
2022-08-20T09:41:51.023Z,1011.62
2022-08-20T09:42:50.999Z,1011.58
2022-08-20T09:43:51.032Z,1011.60
2022-08-20T09:44:51.008Z,1011.61
2022-08-20T09:45:50.975Z,1011.58
2022-08-20T09:46:50.980Z,1011.60
2022-08-20T09:47:55.376Z,1011.58
2022-08-20T09:48:50.872Z,1011.57
2022-08-20T09:49:50.853Z,1011.56
2022-08-20T09:50:50.925Z,1011.53
2022-08-20T09:51:50.794Z,1011.55
2022-08-20T09:52:51.125Z,1011.59
2022-08-20T09:53:50.794Z,1011.54
2022-08-20T09:54:50.716Z,1011.56
2022-08-20T09:55:50.763Z,1011.56
2022-08-20T09:56:50.740Z,1011.59
2022-08-20T09:57:50.740Z,1011.58
2022-08-20T09:58:50.756Z,1011.59
2022-08-20T09:59:50.868Z,1011.57
2022-08-20T10:00:50.588Z,1011.62
2022-08-20T10:01:50.688Z,1011.59
2022-08-20T10:02:50.585Z,1011.58
2022-08-20T10:03:50.522Z,1011.58
2022-08-20T10:04:50.482Z,1011.62
2022-08-20T10:05:50.462Z,1011.57
2022-08-20T10:06:50.433Z,1011.59
2022-08-20T10:07:50.504Z,1011.63
2022-08-20T10:08:50.485Z,1011.61
2022-08-20T10:09:50.404Z,1011.59
2022-08-20T10:10:50.348Z,1011.67
2022-08-20T10:11:50.316Z,1011.67
2022-08-20T10:12:54.598Z,1011.60
2022-08-20T10:13:50.265Z,1011.65
2022-08-20T10:14:50.268Z,1011.64
2022-08-20T10:15:50.232Z,1011.63
2022-08-20T10:16:50.212Z,1011.64
2022-08-20T10:17:50.207Z,1011.62
2022-08-20T10:18:50.229Z,1011.65
2022-08-20T10:19:50.159Z,1011.64
2022-08-20T10:20:50.105Z,1011.63
2022-08-20T10:21:50.094Z,1011.65
2022-08-20T10:22:50.068Z,1011.72
2022-08-20T10:23:50.132Z,1011.65
2022-08-20T10:24:50.005Z,1011.67
2022-08-20T10:25:50.050Z,1011.67
2022-08-20T10:26:49.976Z,1011.66
2022-08-20T10:27:49.962Z,1011.63
2022-08-20T10:28:50.023Z,1011.64
2022-08-20T10:29:49.889Z,1011.65
2022-08-20T10:30:49.890Z,1011.66
2022-08-20T10:31:49.848Z,1011.63
2022-08-20T10:32:49.879Z,1011.69
2022-08-20T10:33:50.681Z,1011.61
2022-08-20T10:34:49.869Z,1011.64
2022-08-20T10:35:49.775Z,1011.60
2022-08-20T10:36:49.724Z,1011.60
2022-08-20T10:37:49.759Z,1011.59
2022-08-20T10:38:49.734Z,1011.62
2022-08-20T10:39:49.816Z,1011.58
2022-08-20T10:40:52.572Z,1011.63
2022-08-20T10:41:49.828Z,1011.65
2022-08-20T10:42:50.492Z,1011.63
2022-08-20T10:43:49.648Z,1011.66
2022-08-20T10:44:49.671Z,1011.68
2022-08-20T10:45:49.592Z,1011.64
2022-08-20T10:46:50.179Z,1011.70
2022-08-20T10:47:49.558Z,1011.70
2022-08-20T10:48:53.178Z,1011.62
2022-08-20T10:49:49.662Z,1011.64
2022-08-20T10:50:49.476Z,1011.62
2022-08-20T10:51:49.438Z,1011.72
2022-08-20T10:52:49.379Z,1011.68
2022-08-20T10:53:49.310Z,1011.69
2022-08-20T10:54:49.407Z,1011.69
2022-08-20T10:55:49.353Z,1011.66
2022-08-20T10:56:49.265Z,1011.67
2022-08-20T10:57:49.277Z,1011.68
2022-08-20T10:58:49.326Z,1011.72
2022-08-20T10:59:49.248Z,1011.75
2022-08-20T11:00:49.281Z,1011.77
2022-08-20T11:01:49.349Z,1011.77
2022-08-20T11:02:49.147Z,1011.74
2022-08-20T11:03:49.088Z,1011.76
2022-08-20T11:04:49.073Z,1011.73
2022-08-20T11:05:49.103Z,1011.76
2022-08-20T11:06:49.123Z,1011.80
2022-08-20T11:07:55.526Z,1011.74
2022-08-20T11:08:48.981Z,1011.80
2022-08-20T11:09:48.962Z,1011.79
2022-08-20T11:10:49.683Z,1011.84
2022-08-20T11:11:55.667Z,1011.85
2022-08-20T11:12:48.889Z,1011.86
2022-08-20T11:13:48.857Z,1011.85
2022-08-20T11:14:48.821Z,1011.87
2022-08-20T11:15:48.812Z,1011.85
2022-08-20T11:16:48.787Z,1011.87
2022-08-20T11:17:49.806Z,1011.87
2022-08-20T11:18:48.787Z,1011.91
2022-08-20T11:19:49.187Z,1011.94
2022-08-20T11:20:48.699Z,1011.93
2022-08-20T11:21:48.663Z,1011.92
2022-08-20T11:22:48.638Z,1011.92
2022-08-20T11:23:48.723Z,1011.90
2022-08-20T11:24:48.583Z,1011.91
2022-08-20T11:25:48.564Z,1011.94
2022-08-20T11:26:48.538Z,1011.97
2022-08-20T11:27:48.527Z,1012.00
2022-08-20T11:28:48.477Z,1011.95
2022-08-20T11:29:48.744Z,1011.97
2022-08-20T11:30:48.437Z,1011.98
2022-08-20T11:31:48.422Z,1012.00
2022-08-20T11:32:48.383Z,1011.97
2022-08-20T11:33:48.388Z,1011.96
2022-08-20T11:34:48.357Z,1012.01
2022-08-20T11:35:50.089Z,1011.99
2022-08-20T11:36:48.365Z,1011.98
2022-08-20T11:37:48.300Z,1012.03
2022-08-20T11:38:48.249Z,1012.04
2022-08-20T11:39:48.266Z,1012.03
2022-08-20T11:40:48.264Z,1012.07
2022-08-20T11:41:48.262Z,1012.06
2022-08-20T11:43:12.573Z,1012.07
2022-08-20T11:44:10.411Z,1012.08
2022-08-20T11:44:48.105Z,1012.04
2022-08-20T11:45:48.071Z,1012.03
2022-08-20T11:46:48.038Z,1012.05
2022-08-20T11:47:48.100Z,1012.05
2022-08-20T11:48:47.995Z,1012.06
2022-08-20T11:49:47.964Z,1012.10
2022-08-20T11:50:47.955Z,1012.04
2022-08-20T11:51:50.078Z,1012.05
2022-08-20T11:52:47.901Z,1012.07
2022-08-20T11:53:47.958Z,1012.00
2022-08-20T11:54:49.971Z,1012.01
2022-08-20T11:55:48.149Z,1012.00
2022-08-20T11:56:47.807Z,1012.02
2022-08-20T11:57:47.809Z,1011.97
2022-08-20T11:58:47.756Z,1011.94
2022-08-20T11:59:47.740Z,1011.95
2022-08-20T12:00:47.713Z,1011.97
2022-08-20T12:02:02.930Z,1011.98
2022-08-20T12:02:47.706Z,1011.95
2022-08-20T12:03:47.629Z,1012.02
2022-08-20T12:04:47.608Z,1011.96